Ubc Canada — 5BYX2 — position and weather

sailwx.info

Track history (hours):
 
Tides and Currents Weather Stations Pressure Air Temp Water Temp Dewpoint Dewpoint Depression Visibility Wind Speed Wind Dir Waves Ship Positions

Ubc Canada

Last reported at 2017-Jul-22 23:59 UTC. Time now 2017-Jul-23 02:41 UTC.
Position S 38°06' E 144°55'.

Length 132 m; draft 4.6 m.

Type: Cargo ship. MMSI: 212297000.

Date/timePositionNaut miles runAvg speedWind from/ knotsBaromVisibWave heightAir tempDewpointWater temp
2017-Jul-22 23:59S 38°06' E 144°55'712.5
2017-Jul-22 23:28S 37°60' E 144°55'612.3
2017-Jul-22 23:00S 37°54' E 144°55'  
2017-Jul-18 07:16S 33°56' E 151°22'311.2
2017-Jul-18 06:59S 33°52' E 151°21'4 7.8
2017-Jul-18 06:29S 33°50' E 151°18'3 0.3
2017-Jul-17 20:31S 33°50' E 151°21'0 8.9
2017-Jul-17 20:30S 33°50' E 151°21'3 5.9
2017-Jul-17 20:00S 33°49' E 151°24'3 6.5
2017-Jul-17 19:28S 33°46' E 151°27'2 2.5
2017-Jul-17 18:51S 33°45' E 151°28'2 4.2
2017-Jul-17 18:30S 33°44' E 151°30'1 2.5
2017-Jul-17 18:00S 33°43' E 151°31'1 2.1
2017-Jul-17 17:30S 33°44' E 151°30'2 3.3
2017-Jul-17 16:56S 33°45' E 151°29'1 1.4
2017-Jul-17 16:28S 33°45' E 151°28'4 7.6
2017-Jul-17 15:54S 33°42' E 151°32'4 8.9
2017-Jul-17 15:30S 33°40' E 151°35'5 8.9
2017-Jul-17 14:59S 33°37' E 151°39'59 9.9
2017-Jul-17 09:04S 32°58' E 152°32'510.6
2017-Jul-17 08:34S 32°55' E 152°36'110.0
2017-Jul-17 08:30S 32°54' E 152°37'710.2
2017-Jul-17 07:47S 32°48' E 152°42'510.0
2017-Jul-17 07:15S 32°44' E 152°45'310.0
2017-Jul-17 06:59S 32°41' E 152°47'  
Track history (hours):
 
Tides and Currents Weather Stations Pressure Air Temp Water Temp Dewpoint Dewpoint Depression Visibility Wind Speed Wind Dir Waves Ship Positions

Ubc Canada

Last reported at 2017-Jul-22 23:59 UTC. Time now 2017-Jul-23 02:41 UTC.
Position S 38°06' E 144°55'.

Length 132 m; draft 4.6 m.

Type: Cargo ship. MMSI: 212297000.

Date/timePositionNaut miles runAvg speedWind from/ knotsBaromVisibWave heightAir tempDewpointWater temp
2017-Jul-22 23:59S 38°06' E 144°55'712.5
2017-Jul-22 23:28S 37°60' E 144°55'612.3
2017-Jul-22 23:00S 37°54' E 144°55'  
2017-Jul-18 07:16S 33°56' E 151°22'311.2
2017-Jul-18 06:59S 33°52' E 151°21'4 7.8
2017-Jul-18 06:29S 33°50' E 151°18'3 0.3
2017-Jul-17 20:31S 33°50' E 151°21'0 8.9
2017-Jul-17 20:30S 33°50' E 151°21'3 5.9
2017-Jul-17 20:00S 33°49' E 151°24'3 6.5
2017-Jul-17 19:28S 33°46' E 151°27'2 2.5
2017-Jul-17 18:51S 33°45' E 151°28'2 4.2
2017-Jul-17 18:30S 33°44' E 151°30'1 2.5
2017-Jul-17 18:00S 33°43' E 151°31'1 2.1
2017-Jul-17 17:30S 33°44' E 151°30'2 3.3
2017-Jul-17 16:56S 33°45' E 151°29'1 1.4
2017-Jul-17 16:28S 33°45' E 151°28'4 7.6
2017-Jul-17 15:54S 33°42' E 151°32'4 8.9
2017-Jul-17 15:30S 33°40' E 151°35'5 8.9
2017-Jul-17 14:59S 33°37' E 151°39'59 9.9
2017-Jul-17 09:04S 32°58' E 152°32'510.6
2017-Jul-17 08:34S 32°55' E 152°36'110.0
2017-Jul-17 08:30S 32°54' E 152°37'710.2
2017-Jul-17 07:47S 32°48' E 152°42'510.0
2017-Jul-17 07:15S 32°44' E 152°45'310.0
2017-Jul-17 06:59S 32°41' E 152°47'  

Dump ship's entire track history